This is the latest recevied weather packets stored in our database for station/object K9ZOG. If no packets are shown the sender has not sent any weather packets the latest 10 day(s).
| Time | Temp. | Humidity | Pressure | Rain* | Wind** | Luminosity | Snow |
|---|---|---|---|---|---|---|---|
| 1777837752 | 10° C | 75% | 1010 hPa | 0.25 mm | - | 98 W/m² | - |
| 1777837452 | 10° C | 75% | 1010.3 hPa | 0.25 mm | - | 75 W/m² | - |
| 1777837154 | 10° C | 76% | 1010.4 hPa | 0.25 mm | - | 65 W/m² | - |
| 1777836853 | 10° C | 77% | 1010.5 hPa | 0.25 mm | - | 64 W/m² | - |
| 1777836553 | 10° C | 77% | 1010.7 hPa | 0.25 mm | - | 56 W/m² | - |
| 1777836253 | 10° C | 76% | 1010.6 hPa | 0 mm | - | 52 W/m² | - |
| 1777835952 | 10.56° C | 75% | 1010.9 hPa | 0 mm | - | 48 W/m² | - |
| 1777835652 | 10.56° C | 73% | 1010.8 hPa | 0 mm | - | 43 W/m² | - |
| 1777835353 | 11.11° C | 70% | 1010.7 hPa | 0 mm | - | 47 W/m² | - |
| 1777835053 | 11.67° C | 66% | 1010.8 hPa | 0 mm | - | 58 W/m² | - |
| 1777834752 | 11.67° C | 65% | 1011 hPa | 0 mm | - | 115 W/m² | - |
| 1777834453 | 11.67° C | 63% | 1011.1 hPa | 0 mm | - | 172 W/m² | - |
| 1777834152 | 12.22° C | 63% | 1011.1 hPa | 0 mm | - | 228 W/m² | - |
| 1777833853 | 12.78° C | 61% | 1011.3 hPa | 0 mm | - | 262 W/m² | - |
| 1777833554 | 12.78° C | 60% | 1011.1 hPa | 0 mm | - | 306 W/m² | - |
| 1777833252 | 13.33° C | 59% | 1011.1 hPa | 0 mm | - | 329 W/m² | - |
| 1777832952 | 13.33° C | 58% | 1011 hPa | 0 mm | - | 404 W/m² | - |
| 1777832652 | 13.89° C | 57% | 1011.1 hPa | 0 mm | - | 551 W/m² | - |
| 1777832355 | 14.44° C | 55% | 1011 hPa | 0 mm | - | 652 W/m² | - |
| 1777832054 | 14.44° C | 54% | 1010.9 hPa | 0 mm | - | 895 W/m² | - |
| 1777831754 | 14.44° C | 53% | 1011.1 hPa | 0 mm | - | 888 W/m² | - |
| 1777831452 | 14.44° C | 52% | 1010.9 hPa | 0 mm | - | 397 W/m² | - |
| 1777831152 | 14.44° C | 53% | 1011.1 hPa | 0 mm | - | 892 W/m² | - |
| 1777830853 | 14.44° C | 53% | 1011.1 hPa | 0 mm | - | 879 W/m² | - |
| 1777830553 | 13.89° C | 53% | 1011.1 hPa | 0 mm | - | 877 W/m² | - |
* Rain latest hour (hover to see other rain measurements)
** Current wind speed in m/s (hover to see current wind gust speed)